createdAt,value
2022-11-15T00:02:22.807Z,67.36
2022-11-15T00:05:07.661Z,66.82
2022-11-15T00:07:56.323Z,66.95
2022-11-15T00:10:41.605Z,67.99
2022-11-15T00:13:26.474Z,67.13
2022-11-15T00:16:11.127Z,66.67
2022-11-15T00:18:55.800Z,66.56
2022-11-15T00:21:40.646Z,66.23
2022-11-15T00:24:25.461Z,65.96
2022-11-15T00:27:10.128Z,65.87
2022-11-15T00:29:54.921Z,65.53
2022-11-15T00:32:39.913Z,65.62
2022-11-15T00:35:24.658Z,65.60
2022-11-15T00:38:09.458Z,65.30
2022-11-15T00:40:54.125Z,65.46
2022-11-15T00:43:38.842Z,65.20
2022-11-15T00:46:23.476Z,64.84
2022-11-15T00:49:08.179Z,64.10
2022-11-15T00:51:52.937Z,63.63
2022-11-15T00:54:37.852Z,63.41
2022-11-15T00:57:22.528Z,63.14
2022-11-15T01:00:07.319Z,63.20
2022-11-15T01:02:52.074Z,63.54
2022-11-15T01:05:36.691Z,63.58
2022-11-15T01:08:21.481Z,63.81
2022-11-15T01:11:06.152Z,64.03
2022-11-15T01:13:51.100Z,64.03
2022-11-15T01:16:35.792Z,64.08
2022-11-15T01:19:20.785Z,63.65
2022-11-15T01:22:05.424Z,64.26
2022-11-15T01:24:50.263Z,64.09
2022-11-15T01:27:35.110Z,64.35
2022-11-15T01:30:19.876Z,64.19
2022-11-15T01:33:04.690Z,65.34
2022-11-15T01:35:49.435Z,65.17
2022-11-15T01:38:34.284Z,64.86
2022-11-15T01:41:19.000Z,66.19
2022-11-15T01:44:03.804Z,66.09
2022-11-15T01:46:48.532Z,65.50
2022-11-15T01:49:33.303Z,65.10
2022-11-15T01:52:18.002Z,64.30
2022-11-15T01:55:02.882Z,64.69
2022-11-15T01:57:47.487Z,65.11
2022-11-15T02:00:32.220Z,64.92
2022-11-15T02:03:16.944Z,64.21
2022-11-15T02:06:01.492Z,63.87
2022-11-15T02:08:46.232Z,63.68
2022-11-15T02:11:30.908Z,63.60
2022-11-15T02:14:15.745Z,63.59
2022-11-15T02:17:00.537Z,63.97
2022-11-15T02:19:45.335Z,63.69
2022-11-15T02:22:30.012Z,64.09
2022-11-15T02:25:15.065Z,64.14
2022-11-15T02:27:59.924Z,63.80
2022-11-15T02:30:44.683Z,63.45
2022-11-15T02:33:29.825Z,64.18
2022-11-15T02:36:14.853Z,64.24
2022-11-15T02:38:59.696Z,64.23
2022-11-15T02:41:44.466Z,64.46
2022-11-15T02:44:29.234Z,64.39
2022-11-15T02:47:13.905Z,64.12
2022-11-15T02:49:58.716Z,64.30
2022-11-15T02:52:43.501Z,64.32
2022-11-15T02:55:28.348Z,64.68
2022-11-15T02:58:13.401Z,64.70
2022-11-15T03:00:58.250Z,64.39
2022-11-15T03:03:43.084Z,64.66
2022-11-15T03:06:27.925Z,65.02
2022-11-15T03:09:13.012Z,64.62
2022-11-15T03:11:57.789Z,64.23
2022-11-15T03:14:42.438Z,64.65
2022-11-15T03:17:27.118Z,65.29
2022-11-15T03:20:11.849Z,64.80
2022-11-15T03:22:56.498Z,65.10
2022-11-15T03:25:41.367Z,64.73
2022-11-15T03:28:26.142Z,65.02
2022-11-15T03:31:10.833Z,65.17
2022-11-15T03:33:55.764Z,64.82
2022-11-15T03:36:40.564Z,64.67
2022-11-15T03:39:25.412Z,64.81
2022-11-15T03:42:10.025Z,64.72
2022-11-15T03:44:54.750Z,64.80
2022-11-15T03:47:39.437Z,64.61
2022-11-15T03:50:24.240Z,64.41
2022-11-15T03:53:08.901Z,64.32
2022-11-15T03:55:53.623Z,64.27
2022-11-15T03:58:38.474Z,64.71
2022-11-15T04:01:23.279Z,65.15
2022-11-15T04:04:08.628Z,64.96
2022-11-15T04:06:53.383Z,64.67
2022-11-15T04:09:38.094Z,64.29
2022-11-15T04:12:22.811Z,64.60
2022-11-15T04:15:07.623Z,64.24
2022-11-15T04:17:52.381Z,64.90
2022-11-15T04:20:37.634Z,64.63
2022-11-15T04:23:22.457Z,63.70
2022-11-15T04:26:07.282Z,64.27
2022-11-15T04:28:51.958Z,64.63
2022-11-15T04:31:36.633Z,64.45
2022-11-15T04:34:21.476Z,64.68
2022-11-15T04:37:06.098Z,64.73
2022-11-15T04:39:50.848Z,64.61
2022-11-15T04:42:35.585Z,64.63
2022-11-15T04:45:20.373Z,63.88
2022-11-15T04:48:05.062Z,64.14
2022-11-15T04:50:49.787Z,63.85
2022-11-15T04:53:34.836Z,64.17
2022-11-15T04:56:19.803Z,63.92
2022-11-15T04:59:04.710Z,64.17
2022-11-15T05:01:49.422Z,64.44
2022-11-15T05:04:34.297Z,64.96
2022-11-15T05:07:19.123Z,64.26
2022-11-15T05:10:03.947Z,64.44
2022-11-15T05:12:48.617Z,64.29
2022-11-15T05:15:33.515Z,65.24
2022-11-15T05:18:23.150Z,64.92
2022-11-15T05:21:08.445Z,64.95
2022-11-15T05:23:53.149Z,64.64
2022-11-15T05:26:37.748Z,65.94
2022-11-15T05:29:22.500Z,65.66
2022-11-15T05:32:07.380Z,65.45
2022-11-15T05:34:52.012Z,65.04
2022-11-15T05:37:36.835Z,64.93
2022-11-15T05:40:21.562Z,64.27
2022-11-15T05:43:06.331Z,64.39
2022-11-15T05:45:51.048Z,64.97
2022-11-15T05:48:35.864Z,66.03
2022-11-15T05:51:20.537Z,66.71
2022-11-15T05:54:05.427Z,66.18
2022-11-15T05:56:50.099Z,65.64
2022-11-15T05:59:34.987Z,66.15
2022-11-15T06:02:19.806Z,65.99
2022-11-15T06:05:04.547Z,65.43
2022-11-15T06:07:49.284Z,65.20
2022-11-15T06:10:34.046Z,65.19
2022-11-15T06:13:18.820Z,64.87
2022-11-15T06:16:03.449Z,65.62
2022-11-15T06:18:48.245Z,64.91
2022-11-15T06:21:32.993Z,65.13
2022-11-15T06:24:17.774Z,65.83
2022-11-15T06:27:02.489Z,65.67
2022-11-15T06:29:47.374Z,65.28
2022-11-15T06:32:32.203Z,64.71
2022-11-15T06:35:16.944Z,64.92
2022-11-15T06:38:02.050Z,64.61
2022-11-15T06:40:46.713Z,64.18
2022-11-15T06:43:31.949Z,64.58
2022-11-15T06:46:16.744Z,64.74
2022-11-15T06:49:05.300Z,64.15
2022-11-15T06:51:54.290Z,64.15
2022-11-15T06:54:39.085Z,63.78
2022-11-15T06:57:23.828Z,63.18
2022-11-15T07:00:08.662Z,63.53
2022-11-15T07:02:53.364Z,63.16
2022-11-15T07:05:38.273Z,62.70
2022-11-15T07:08:23.123Z,62.51
2022-11-15T07:11:08.016Z,63.30
2022-11-15T07:13:52.607Z,63.11
2022-11-15T07:16:37.348Z,62.68
2022-11-15T07:19:22.001Z,62.39
2022-11-15T07:22:06.835Z,62.27
2022-11-15T07:24:51.478Z,62.31
2022-11-15T07:27:36.602Z,61.79
2022-11-15T07:30:21.391Z,62.37
2022-11-15T07:33:06.063Z,62.17
2022-11-15T07:35:50.897Z,61.54
2022-11-15T07:38:41.011Z,62.69
2022-11-15T07:41:27.512Z,62.80
2022-11-15T07:44:12.188Z,63.16
2022-11-15T07:46:56.866Z,63.43
2022-11-15T07:49:41.679Z,63.62
2022-11-15T07:52:26.353Z,63.00
2022-11-15T07:55:11.095Z,62.79
2022-11-15T07:57:55.782Z,63.00
2022-11-15T08:00:40.614Z,62.59
2022-11-15T08:03:25.271Z,62.94
2022-11-15T08:06:09.939Z,62.00
2022-11-15T08:08:54.684Z,61.44
2022-11-15T08:11:39.536Z,61.21
2022-11-15T08:14:24.411Z,60.85
2022-11-15T08:17:09.271Z,60.79
2022-11-15T08:19:53.899Z,59.90
2022-11-15T08:22:38.496Z,60.33
2022-11-15T08:25:23.195Z,60.72
2022-11-15T08:28:07.879Z,61.29
2022-11-15T08:30:52.730Z,61.45
2022-11-15T08:33:37.457Z,61.40
2022-11-15T08:36:22.331Z,60.87
2022-11-15T08:39:07.091Z,60.67
2022-11-15T08:41:51.772Z,59.65
2022-11-15T08:44:36.662Z,58.86
2022-11-15T08:47:21.274Z,58.94
2022-11-15T08:50:06.152Z,59.27
2022-11-15T08:52:50.858Z,60.86
2022-11-15T08:55:35.767Z,59.96
2022-11-15T08:58:20.335Z,59.75
2022-11-15T09:01:05.258Z,58.93
2022-11-15T09:03:49.843Z,59.47
2022-11-15T09:06:34.608Z,59.28
2022-11-15T09:09:19.393Z,58.57
2022-11-15T09:12:04.069Z,59.03
2022-11-15T09:14:48.914Z,58.64
2022-11-15T09:17:33.590Z,58.46
2022-11-15T09:20:18.409Z,58.25
2022-11-15T09:23:03.153Z,58.03
2022-11-15T09:25:47.919Z,57.83
2022-11-15T09:28:32.680Z,57.18
2022-11-15T09:31:21.191Z,53.60
2022-11-15T09:34:07.266Z,52.80
2022-11-15T09:36:51.821Z,55.54
2022-11-15T09:39:36.635Z,56.40
2022-11-15T09:42:21.286Z,58.48
2022-11-15T09:45:06.127Z,57.66
2022-11-15T09:47:50.856Z,57.38
2022-11-15T09:50:35.529Z,56.31
2022-11-15T09:53:34.473Z,56.68
2022-11-15T09:56:25.118Z,56.86
2022-11-15T09:59:10.137Z,58.39
2022-11-15T10:01:54.830Z,58.74
2022-11-15T10:04:39.594Z,57.86
2022-11-15T10:07:24.292Z,57.82
2022-11-15T10:10:09.107Z,59.57
2022-11-15T10:12:53.923Z,61.32
2022-11-15T10:15:38.643Z,62.47
2022-11-15T10:18:23.435Z,63.75
2022-11-15T10:21:07.972Z,63.95
2022-11-15T10:23:52.751Z,62.33
2022-11-15T10:26:37.474Z,61.27
2022-11-15T10:29:26.750Z,62.25
2022-11-15T10:32:12.206Z,60.67
2022-11-15T10:34:56.909Z,59.29
2022-11-15T10:37:41.732Z,58.71
2022-11-15T10:40:26.374Z,58.63
2022-11-15T10:43:11.170Z,59.75
2022-11-15T10:45:55.913Z,58.16
2022-11-15T10:48:40.766Z,56.35
2022-11-15T10:51:25.706Z,57.65
2022-11-15T10:54:13.006Z,57.05
2022-11-15T10:56:59.608Z,56.75
2022-11-15T10:59:44.341Z,57.66
2022-11-15T11:02:29.085Z,57.31
2022-11-15T11:05:13.883Z,57.39
2022-11-15T11:07:58.589Z,56.44
2022-11-15T11:10:57.161Z,56.16
2022-11-15T11:13:45.154Z,54.36
2022-11-15T11:16:31.240Z,54.12
2022-11-15T11:19:17.639Z,53.93
2022-11-15T11:22:02.275Z,53.46
2022-11-15T11:24:47.082Z,52.51
2022-11-15T11:27:31.820Z,52.52
2022-11-15T11:30:16.470Z,52.65
2022-11-15T11:33:01.161Z,52.37
2022-11-15T11:35:45.972Z,52.63
2022-11-15T11:38:30.964Z,52.37
2022-11-15T11:41:16.102Z,52.38
2022-11-15T11:44:00.932Z,52.60
2022-11-15T11:46:45.646Z,52.13
2022-11-15T11:49:30.448Z,51.99
2022-11-15T11:52:15.153Z,51.99
2022-11-15T11:54:59.996Z,51.18
2022-11-15T11:57:44.661Z,51.63
2022-11-15T12:00:29.467Z,52.51
2022-11-15T12:03:14.338Z,52.51
2022-11-15T12:05:59.548Z,53.60
2022-11-15T12:08:44.379Z,52.49
2022-11-15T12:11:29.049Z,53.30
2022-11-15T12:14:13.891Z,52.02
2022-11-15T12:16:58.620Z,53.58
2022-11-15T12:19:43.509Z,52.87
2022-11-15T12:22:28.239Z,53.93
2022-11-15T12:25:13.173Z,53.26
2022-11-15T12:27:57.938Z,54.10
2022-11-15T12:30:42.769Z,53.46
2022-11-15T12:33:27.631Z,53.15
2022-11-15T12:36:12.484Z,54.27
2022-11-15T12:38:57.191Z,54.06
2022-11-15T12:41:41.967Z,54.14
2022-11-15T12:44:26.927Z,53.68
2022-11-15T12:47:11.740Z,53.71
2022-11-15T12:49:56.598Z,53.56
2022-11-15T12:52:41.195Z,52.97
2022-11-15T12:55:26.071Z,53.39
2022-11-15T12:58:10.774Z,53.70
2022-11-15T13:00:55.653Z,54.64
2022-11-15T13:03:40.340Z,54.86
2022-11-15T13:06:25.191Z,55.70
2022-11-15T13:09:10.006Z,55.83
2022-11-15T13:11:54.785Z,56.02
2022-11-15T13:14:39.526Z,56.44
2022-11-15T13:17:24.220Z,56.63
2022-11-15T13:20:08.910Z,56.97
2022-11-15T13:22:53.671Z,57.31
2022-11-15T13:25:38.453Z,57.96
2022-11-15T13:28:23.219Z,57.17
2022-11-15T13:31:07.995Z,58.37
2022-11-15T13:33:52.745Z,59.25
2022-11-15T13:36:37.484Z,58.38
2022-11-15T13:39:22.239Z,57.81
2022-11-15T13:42:07.025Z,57.44
2022-11-15T13:44:52.279Z,56.78
2022-11-15T13:47:37.052Z,56.55
2022-11-15T13:50:21.849Z,55.14
2022-11-15T13:53:06.563Z,54.17
2022-11-15T13:55:51.411Z,54.14
2022-11-15T13:58:36.458Z,54.34
2022-11-15T14:01:21.966Z,54.15
2022-11-15T14:04:07.457Z,54.10
2022-11-15T14:06:52.510Z,53.94
2022-11-15T14:09:37.770Z,52.67
2022-11-15T14:12:22.554Z,52.79
2022-11-15T14:15:07.323Z,52.33
2022-11-15T14:17:51.863Z,52.85
2022-11-15T14:20:36.635Z,53.91
2022-11-15T14:23:21.346Z,54.07
2022-11-15T14:26:11.427Z,54.48
2022-11-15T14:28:57.007Z,54.54
2022-11-15T14:31:43.855Z,54.36
2022-11-15T14:34:28.778Z,54.42
2022-11-15T14:37:13.512Z,54.93
2022-11-15T14:39:58.212Z,54.14
2022-11-15T14:42:42.887Z,53.96
2022-11-15T14:45:27.579Z,53.85
2022-11-15T14:48:12.321Z,54.05
2022-11-15T14:50:56.921Z,54.19
2022-11-15T14:53:41.820Z,54.48
2022-11-15T14:56:26.497Z,55.01
2022-11-15T14:59:11.361Z,54.15
2022-11-15T15:01:56.245Z,54.96
2022-11-15T15:04:40.945Z,55.84
2022-11-15T15:07:25.637Z,56.48
2022-11-15T15:10:38.310Z,55.92
2022-11-15T15:13:15.124Z,54.73
2022-11-15T15:16:00.027Z,54.68
2022-11-15T15:18:44.703Z,55.12
2022-11-15T15:21:35.348Z,54.78
2022-11-15T15:24:22.149Z,53.46
2022-11-15T15:27:06.953Z,54.48
2022-11-15T15:29:51.798Z,55.68
2022-11-15T15:32:36.529Z,56.02
2022-11-15T15:35:21.294Z,56.05
2022-11-15T15:38:05.863Z,55.92
2022-11-15T15:40:51.796Z,56.35
2022-11-15T15:43:37.115Z,57.37
2022-11-15T15:46:21.964Z,58.27
2022-11-15T15:49:06.707Z,58.04
2022-11-15T15:51:51.515Z,57.89
2022-11-15T15:54:36.316Z,56.68
2022-11-15T15:57:20.933Z,57.65
2022-11-15T16:00:05.821Z,57.82
2022-11-15T16:02:50.712Z,58.88
2022-11-15T16:05:35.510Z,56.68
2022-11-15T16:08:20.230Z,57.22
2022-11-15T16:11:05.011Z,57.24
2022-11-15T16:13:49.749Z,57.11
2022-11-15T16:16:34.361Z,57.06
2022-11-15T16:19:19.302Z,56.70
2022-11-15T16:22:04.065Z,57.49
2022-11-15T16:24:48.904Z,55.66
2022-11-15T16:27:33.648Z,56.39
2022-11-15T16:30:18.471Z,57.32
2022-11-15T16:33:03.187Z,57.21
2022-11-15T16:35:47.923Z,56.94
2022-11-15T16:38:32.948Z,57.50
2022-11-15T16:41:18.034Z,57.62
2022-11-15T16:44:02.863Z,56.55
2022-11-15T16:46:47.567Z,56.59
2022-11-15T16:49:32.545Z,58.14
2022-11-15T16:52:21.201Z,58.31
2022-11-15T16:55:06.575Z,58.28
2022-11-15T16:57:51.329Z,57.93
2022-11-15T17:00:36.042Z,57.28
2022-11-15T17:03:20.910Z,57.29
2022-11-15T17:06:05.586Z,56.17
2022-11-15T17:08:50.415Z,55.89
2022-11-15T17:11:35.206Z,55.07
2022-11-15T17:14:20.039Z,55.25
2022-11-15T17:17:04.803Z,55.17
2022-11-15T17:19:49.628Z,54.34
2022-11-15T17:22:34.323Z,54.55
2022-11-15T17:25:19.037Z,54.88
2022-11-15T17:28:03.674Z,54.91
2022-11-15T17:30:48.357Z,55.53
2022-11-15T17:33:33.232Z,55.56
2022-11-15T17:36:17.929Z,54.85
2022-11-15T17:39:02.698Z,56.26
2022-11-15T17:41:47.228Z,56.45
2022-11-15T17:44:31.983Z,55.26
2022-11-15T17:47:16.580Z,55.33
2022-11-15T17:50:01.489Z,55.06
2022-11-15T17:52:46.471Z,54.88
2022-11-15T17:55:31.190Z,55.29
2022-11-15T17:58:17.204Z,55.03
2022-11-15T18:01:02.188Z,55.11
2022-11-15T18:03:46.823Z,56.42
2022-11-15T18:06:31.571Z,55.55
2022-11-15T18:09:16.329Z,55.96
2022-11-15T18:12:01.051Z,56.53
2022-11-15T18:14:45.734Z,56.20
2022-11-15T18:17:30.592Z,55.88
2022-11-15T18:20:15.354Z,55.93
2022-11-15T18:23:00.279Z,56.74
2022-11-15T18:25:44.753Z,57.68
2022-11-15T18:28:29.716Z,56.66
2022-11-15T18:31:14.872Z,56.41
2022-11-15T18:33:59.484Z,56.27
2022-11-15T18:36:44.167Z,55.68
2022-11-15T18:39:29.063Z,56.97
2022-11-15T18:42:14.390Z,57.51
2022-11-15T18:44:59.239Z,67.23
2022-11-15T18:47:44.121Z,61.33
2022-11-15T18:50:28.838Z,58.12
2022-11-15T18:53:13.488Z,61.51
2022-11-15T18:55:58.317Z,51.58
2022-11-15T18:58:43.021Z,56.31
2022-11-15T19:01:27.757Z,52.25
2022-11-15T19:04:12.979Z,55.61
2022-11-15T19:06:57.637Z,50.52
2022-11-15T19:09:42.408Z,49.78
2022-11-15T19:12:27.118Z,50.46
2022-11-15T19:15:11.818Z,46.96
2022-11-15T19:17:56.577Z,47.57
2022-11-15T19:20:41.309Z,48.85
2022-11-15T19:23:26.100Z,49.90
2022-11-15T19:26:10.766Z,50.41
2022-11-15T19:28:55.433Z,50.67
2022-11-15T19:31:40.010Z,51.57
2022-11-15T19:34:24.768Z,52.18
2022-11-15T19:37:09.604Z,53.27
2022-11-15T19:39:54.463Z,54.24
2022-11-15T19:42:39.197Z,54.81
2022-11-15T19:45:23.922Z,55.06
2022-11-15T19:48:08.750Z,54.20
2022-11-15T19:50:53.587Z,54.51
2022-11-15T19:53:38.829Z,54.07
2022-11-15T19:56:23.741Z,54.47
2022-11-15T19:59:08.418Z,55.37
2022-11-15T20:01:53.313Z,55.17
2022-11-15T20:04:38.075Z,55.26
2022-11-15T20:07:22.782Z,55.52
2022-11-15T20:10:07.996Z,55.59
2022-11-15T20:12:52.707Z,55.90
2022-11-15T20:15:37.630Z,55.71
2022-11-15T20:18:22.565Z,55.66
2022-11-15T20:21:07.383Z,56.45
2022-11-15T20:23:52.192Z,56.67
2022-11-15T20:26:36.982Z,57.64
2022-11-15T20:29:21.797Z,56.86
2022-11-15T20:32:06.425Z,56.50
2022-11-15T20:34:54.040Z,55.54
2022-11-15T20:37:39.160Z,54.32
2022-11-15T20:40:23.954Z,53.67
2022-11-15T20:43:08.710Z,53.46
2022-11-15T20:45:53.390Z,53.52
2022-11-15T20:48:38.208Z,53.52
2022-11-15T20:51:22.932Z,53.75
2022-11-15T20:54:07.696Z,53.39
2022-11-15T20:56:52.524Z,54.61
2022-11-15T20:59:37.193Z,54.39
2022-11-15T21:02:22.052Z,55.40
2022-11-15T21:05:06.847Z,55.13
2022-11-15T21:07:51.558Z,55.71
2022-11-15T21:10:36.402Z,55.00
2022-11-15T21:13:21.395Z,54.74
2022-11-15T21:16:06.008Z,55.40
2022-11-15T21:18:50.746Z,55.51
2022-11-15T21:21:35.638Z,54.49
2022-11-15T21:24:20.802Z,54.67
2022-11-15T21:27:05.689Z,54.55
2022-11-15T21:29:50.218Z,54.25
2022-11-15T21:32:34.982Z,54.24
2022-11-15T21:35:19.573Z,53.98
2022-11-15T21:38:04.222Z,54.22
2022-11-15T21:40:48.879Z,53.60
2022-11-15T21:43:33.580Z,53.92
2022-11-15T21:46:18.352Z,53.88
2022-11-15T21:49:03.621Z,53.82
2022-11-15T21:51:48.337Z,53.86
2022-11-15T21:54:33.058Z,55.73
2022-11-15T21:57:17.853Z,55.63
2022-11-15T22:00:02.715Z,56.12
2022-11-15T22:02:47.551Z,56.57
2022-11-15T22:05:32.812Z,56.24
2022-11-15T22:08:17.639Z,56.41
2022-11-15T22:11:02.199Z,57.10
2022-11-15T22:13:47.045Z,57.71
2022-11-15T22:16:31.746Z,57.81
2022-11-15T22:19:16.393Z,57.16
2022-11-15T22:22:01.243Z,57.40
2022-11-15T22:24:46.560Z,57.03
2022-11-15T22:27:31.445Z,57.14
2022-11-15T22:30:16.082Z,57.33
2022-11-15T22:33:00.762Z,56.71
2022-11-15T22:35:45.399Z,56.40
2022-11-15T22:38:30.429Z,56.21
2022-11-15T22:41:15.160Z,56.32
2022-11-15T22:43:59.949Z,56.08
2022-11-15T22:46:44.592Z,57.10
2022-11-15T22:49:29.463Z,57.04
2022-11-15T22:52:14.369Z,56.91
2022-11-15T22:54:59.197Z,57.66
2022-11-15T22:57:43.968Z,58.32
2022-11-15T23:00:28.755Z,57.38
2022-11-15T23:03:13.568Z,58.39
2022-11-15T23:05:58.280Z,57.97
2022-11-15T23:08:43.143Z,58.69
2022-11-15T23:11:27.804Z,57.34
2022-11-15T23:14:12.537Z,57.79
2022-11-15T23:16:57.184Z,57.27
2022-11-15T23:19:41.956Z,57.84
2022-11-15T23:22:26.782Z,57.68
2022-11-15T23:25:11.415Z,57.45
2022-11-15T23:27:56.322Z,57.89
2022-11-15T23:30:40.902Z,57.78
2022-11-15T23:33:25.648Z,59.05
2022-11-15T23:36:10.371Z,57.84
2022-11-15T23:38:55.195Z,57.51
2022-11-15T23:41:39.953Z,58.04
2022-11-15T23:44:24.627Z,59.08
2022-11-15T23:47:09.364Z,59.35
2022-11-15T23:49:54.201Z,59.80
2022-11-15T23:52:38.936Z,60.20
2022-11-15T23:55:23.762Z,59.65
2022-11-15T23:58:08.633Z,58.56
